Belize City, Belize

3:33 PM CST on August 01, 2015 (GMT -0600)
Slaughter House Rd, Bze City | | Change Station
CLOSE
Current Station
Personal Weather Station
Location: Belize City,
Elevation: 10 ft
Nearby Weather Stations

Elev 10 ft 17.49 °N, 88.19 °W | Updated 19 seconds ago

Mostly Cloudy
Mostly Cloudy
86.1 °F
Feels Like 94 °F
N
9.3
Wind Variable Wind from ESE
Gusts 15.0 mph

Today
High -- | Low -- °F
--% Chance of Precip.
Yesterday
High -- | Low -- °F
Precip. -- in
5:31 AM 6:26 PM
Full, 97% visible
Pressure 29.89 in
Visibility 6.2 miles
Clouds Mostly Cloudy 2400 ft
Heat Index 94 °F
Dew Point 74 °F
Humidity 68%
Rainfall 0.00 in
Snow Depth Not available.
UV 5 out of 12
Pollen Not available.
Air Quality Not available.
Flu Activity Not available.
METAR MZBZ 012100Z 09008KT 9999 BKN024 31/25 A2989 Q1012 NOSIG

More Conditions Fewer Conditions

Pressure 29.89 in
Visibility 6.2 miles
Clouds Mostly Cloudy 2400 ft
Heat Index 94 °F
Dew Point 74 °F
Humidity 68%
Rainfall 0.00 in
Snow Depth Not available.
UV 5 out of 12
Pollen Not available.
Air Quality Not available.
Flu Activity Not available.
METAR MZBZ 012100Z 09008KT 9999 BKN024 31/25 A2989 Q1012 NOSIG

More Conditions Fewer Conditions

10-Day Weather Forecast

×

Almanac

Astronomy

Aug. 01, 2015 Rise Set
Actual Time
Civil Twilight
Nautical Twilight
Astronomical Twilight
Moon
Length of Visible Light
Length of Day
Tomorrow will be .
, % of the Moon is Illuminated

Today's Extremes

Country Highs Country Lows

Community

WunderPhotos

Upload Photos

1,843,080 photos uploaded!

WunderBlogs® & News

Nearby

Air Quality

  Air Quality AQ Index Pollutant
Not available.

Snow Depth

Station Depth Elevation

Earthquake Activity

City Distance Mag. Time & Date
Minimum magnitude displayed is 2.5.

Coastal Water Temperatures

Place Temperature

Stations

Nearby Weather Stations

Station Location Temp. Windchill Dew Point Humidity Wind Precip. Elev Updated Type